sensor_id;sensor_type;location;lat;lon;timestamp;P1;durP1;ratioP1;P2;durP2;ratioP2
39448;SDS011;25151;45.566;9.382;2022-12-13T00:02:33;5.57;;;3.63;;
39448;SDS011;25151;45.566;9.382;2022-12-13T00:05:34;4.70;;;3.42;;
39448;SDS011;25151;45.566;9.382;2022-12-13T00:08:35;4.60;;;3.58;;
39448;SDS011;25151;45.566;9.382;2022-12-13T00:11:36;3.90;;;3.20;;
39448;SDS011;25151;45.566;9.382;2022-12-13T00:14:37;4.45;;;3.10;;
39448;SDS011;25151;45.566;9.382;2022-12-13T00:17:37;5.57;;;3.35;;
39448;SDS011;25151;45.566;9.382;2022-12-13T00:20:38;3.78;;;3.38;;
39448;SDS011;25151;45.566;9.382;2022-12-13T00:23:39;4.10;;;3.10;;
39448;SDS011;25151;45.566;9.382;2022-12-13T00:26:39;4.63;;;3.33;;
39448;SDS011;25151;45.566;9.382;2022-12-13T00:29:40;5.38;;;3.70;;
39448;SDS011;25151;45.566;9.382;2022-12-13T00:35:41;4.47;;;3.77;;
39448;SDS011;25151;45.566;9.382;2022-12-13T00:38:42;4.65;;;3.70;;
39448;SDS011;25151;45.566;9.382;2022-12-13T00:41:43;5.07;;;3.38;;
39448;SDS011;25151;45.566;9.382;2022-12-13T00:44:44;5.07;;;3.50;;
39448;SDS011;25151;45.566;9.382;2022-12-13T00:47:45;5.80;;;3.80;;
39448;SDS011;25151;45.566;9.382;2022-12-13T00:50:46;4.45;;;3.47;;
39448;SDS011;25151;45.566;9.382;2022-12-13T00:53:46;6.82;;;3.80;;
39448;SDS011;25151;45.566;9.382;2022-12-13T00:56:47;5.10;;;3.92;;
39448;SDS011;25151;45.566;9.382;2022-12-13T00:59:50;4.47;;;3.38;;
39448;SDS011;25151;45.566;9.382;2022-12-13T01:02:53;6.57;;;4.55;;
39448;SDS011;25151;45.566;9.382;2022-12-13T01:05:54;6.25;;;3.95;;
39448;SDS011;25151;45.566;9.382;2022-12-13T01:08:55;5.68;;;4.05;;
39448;SDS011;25151;45.566;9.382;2022-12-13T01:12:01;4.00;;;3.08;;
39448;SDS011;25151;45.566;9.382;2022-12-13T01:15:04;4.95;;;4.07;;
39448;SDS011;25151;45.566;9.382;2022-12-13T01:18:06;6.78;;;3.88;;
39448;SDS011;25151;45.566;9.382;2022-12-13T01:21:09;5.53;;;4.18;;
39448;SDS011;25151;45.566;9.382;2022-12-13T01:24:12;6.95;;;4.07;;
39448;SDS011;25151;45.566;9.382;2022-12-13T01:27:12;4.43;;;3.67;;
39448;SDS011;25151;45.566;9.382;2022-12-13T01:30:13;6.47;;;3.72;;
39448;SDS011;25151;45.566;9.382;2022-12-13T01:33:14;3.97;;;3.47;;
39448;SDS011;25151;45.566;9.382;2022-12-13T01:36:15;4.82;;;3.75;;
39448;SDS011;25151;45.566;9.382;2022-12-13T01:39:18;6.35;;;4.03;;
39448;SDS011;25151;45.566;9.382;2022-12-13T01:42:19;4.53;;;3.50;;
39448;SDS011;25151;45.566;9.382;2022-12-13T01:45:21;7.90;;;3.75;;
39448;SDS011;25151;45.566;9.382;2022-12-13T01:48:28;5.18;;;3.53;;
39448;SDS011;25151;45.566;9.382;2022-12-13T01:51:46;4.55;;;3.80;;
39448;SDS011;25151;45.566;9.382;2022-12-13T01:54:51;4.75;;;3.35;;
39448;SDS011;25151;45.566;9.382;2022-12-13T01:57:56;4.20;;;3.80;;
39448;SDS011;25151;45.566;9.382;2022-12-13T02:00:59;6.60;;;3.72;;
39448;SDS011;25151;45.566;9.382;2022-12-13T02:04:00;3.60;;;3.30;;
39448;SDS011;25151;45.566;9.382;2022-12-13T02:07:01;4.60;;;3.45;;
39448;SDS011;25151;45.566;9.382;2022-12-13T02:10:04;6.10;;;3.50;;
39448;SDS011;25151;45.566;9.382;2022-12-13T02:13:08;4.95;;;3.67;;
39448;SDS011;25151;45.566;9.382;2022-12-13T02:23:04;4.93;;;3.78;;
39448;SDS011;25151;45.566;9.382;2022-12-13T02:26:44;4.05;;;3.65;;
39448;SDS011;25151;45.566;9.382;2022-12-13T02:39:56;4.95;;;3.75;;
39448;SDS011;25151;45.566;9.382;2022-12-13T02:43:07;5.10;;;3.90;;
39448;SDS011;25151;45.566;9.382;2022-12-13T02:46:11;4.90;;;4.32;;
39448;SDS011;25151;45.566;9.382;2022-12-13T02:49:15;4.90;;;4.22;;
39448;SDS011;25151;45.566;9.382;2022-12-13T02:52:17;4.57;;;3.70;;
39448;SDS011;25151;45.566;9.382;2022-12-13T02:55:21;6.63;;;4.00;;
39448;SDS011;25151;45.566;9.382;2022-12-13T02:58:22;4.03;;;3.45;;
39448;SDS011;25151;45.566;9.382;2022-12-13T03:01:45;4.63;;;3.63;;
39448;SDS011;25151;45.566;9.382;2022-12-13T03:12:28;4.22;;;3.50;;
39448;SDS011;25151;45.566;9.382;2022-12-13T03:15:59;4.45;;;3.60;;
39448;SDS011;25151;45.566;9.382;2022-12-13T03:19:07;4.90;;;3.80;;
39448;SDS011;25151;45.566;9.382;2022-12-13T03:22:10;4.38;;;3.40;;
39448;SDS011;25151;45.566;9.382;2022-12-13T03:25:11;4.60;;;3.85;;
39448;SDS011;25151;45.566;9.382;2022-12-13T03:28:11;4.75;;;4.07;;
39448;SDS011;25151;45.566;9.382;2022-12-13T03:31:12;5.10;;;3.53;;
39448;SDS011;25151;45.566;9.382;2022-12-13T03:37:13;5.30;;;3.97;;
39448;SDS011;25151;45.566;9.382;2022-12-13T03:40:14;4.78;;;3.88;;
39448;SDS011;25151;45.566;9.382;2022-12-13T03:43:15;6.60;;;5.00;;
39448;SDS011;25151;45.566;9.382;2022-12-13T03:46:17;4.50;;;3.78;;
39448;SDS011;25151;45.566;9.382;2022-12-13T03:49:17;4.47;;;3.92;;
39448;SDS011;25151;45.566;9.382;2022-12-13T03:52:18;4.50;;;3.65;;
39448;SDS011;25151;45.566;9.382;2022-12-13T03:55:18;4.88;;;3.80;;
39448;SDS011;25151;45.566;9.382;2022-12-13T03:58:19;4.65;;;4.00;;
39448;SDS011;25151;45.566;9.382;2022-12-13T04:04:21;4.90;;;4.05;;
39448;SDS011;25151;45.566;9.382;2022-12-13T04:07:21;6.55;;;4.22;;
39448;SDS011;25151;45.566;9.382;2022-12-13T04:10:22;4.25;;;3.72;;
39448;SDS011;25151;45.566;9.382;2022-12-13T04:13:24;4.88;;;4.10;;
39448;SDS011;25151;45.566;9.382;2022-12-13T04:16:33;4.80;;;3.90;;
39448;SDS011;25151;45.566;9.382;2022-12-13T04:19:34;4.68;;;3.80;;
39448;SDS011;25151;45.566;9.382;2022-12-13T04:25:35;4.93;;;4.13;;
39448;SDS011;25151;45.566;9.382;2022-12-13T04:28:38;5.65;;;4.75;;
39448;SDS011;25151;45.566;9.382;2022-12-13T04:31:38;5.80;;;4.40;;
39448;SDS011;25151;45.566;9.382;2022-12-13T04:37:39;5.77;;;3.97;;
39448;SDS011;25151;45.566;9.382;2022-12-13T04:43:40;5.60;;;4.07;;
39448;SDS011;25151;45.566;9.382;2022-12-13T04:46:41;5.45;;;4.22;;
39448;SDS011;25151;45.566;9.382;2022-12-13T04:49:44;6.65;;;4.47;;
39448;SDS011;25151;45.566;9.382;2022-12-13T04:52:45;5.82;;;4.43;;
39448;SDS011;25151;45.566;9.382;2022-12-13T04:55:46;5.85;;;4.57;;
39448;SDS011;25151;45.566;9.382;2022-12-13T04:58:46;6.38;;;4.13;;
39448;SDS011;25151;45.566;9.382;2022-12-13T05:04:47;5.50;;;4.50;;
39448;SDS011;25151;45.566;9.382;2022-12-13T05:07:48;5.10;;;4.00;;
39448;SDS011;25151;45.566;9.382;2022-12-13T05:10:48;5.38;;;4.57;;
39448;SDS011;25151;45.566;9.382;2022-12-13T05:16:52;4.53;;;4.10;;
39448;SDS011;25151;45.566;9.382;2022-12-13T05:19:53;4.85;;;4.22;;
39448;SDS011;25151;45.566;9.382;2022-12-13T05:22:57;4.95;;;4.03;;
39448;SDS011;25151;45.566;9.382;2022-12-13T05:25:57;5.28;;;4.05;;
39448;SDS011;25151;45.566;9.382;2022-12-13T05:28:58;5.85;;;4.10;;
39448;SDS011;25151;45.566;9.382;2022-12-13T05:31:59;5.30;;;3.85;;
39448;SDS011;25151;45.566;9.382;2022-12-13T05:35:00;5.45;;;4.20;;
39448;SDS011;25151;45.566;9.382;2022-12-13T05:38:00;6.60;;;4.43;;
39448;SDS011;25151;45.566;9.382;2022-12-13T05:41:02;4.97;;;4.22;;
39448;SDS011;25151;45.566;9.382;2022-12-13T05:44:03;4.90;;;4.13;;
39448;SDS011;25151;45.566;9.382;2022-12-13T05:47:04;6.03;;;4.35;;
39448;SDS011;25151;45.566;9.382;2022-12-13T05:50:05;5.57;;;4.38;;
39448;SDS011;25151;45.566;9.382;2022-12-13T05:53:06;4.80;;;4.00;;
39448;SDS011;25151;45.566;9.382;2022-12-13T05:56:08;5.25;;;4.40;;
39448;SDS011;25151;45.566;9.382;2022-12-13T05:59:09;4.95;;;4.30;;
39448;SDS011;25151;45.566;9.382;2022-12-13T06:02:10;5.53;;;3.83;;
39448;SDS011;25151;45.566;9.382;2022-12-13T06:05:11;5.55;;;3.92;;
39448;SDS011;25151;45.566;9.382;2022-12-13T06:11:12;5.20;;;4.03;;
39448;SDS011;25151;45.566;9.382;2022-12-13T06:14:14;4.65;;;3.83;;
39448;SDS011;25151;45.566;9.382;2022-12-13T06:17:15;4.80;;;4.20;;
39448;SDS011;25151;45.566;9.382;2022-12-13T06:20:16;5.70;;;4.78;;
39448;SDS011;25151;45.566;9.382;2022-12-13T06:23:17;5.65;;;4.47;;
39448;SDS011;25151;45.566;9.382;2022-12-13T06:26:17;5.50;;;4.63;;
39448;SDS011;25151;45.566;9.382;2022-12-13T06:32:20;7.15;;;4.10;;
39448;SDS011;25151;45.566;9.382;2022-12-13T06:35:21;6.55;;;4.07;;
39448;SDS011;25151;45.566;9.382;2022-12-13T06:38:22;6.57;;;4.18;;
39448;SDS011;25151;45.566;9.382;2022-12-13T06:41:24;6.25;;;4.80;;
39448;SDS011;25151;45.566;9.382;2022-12-13T06:44:24;5.78;;;4.10;;
39448;SDS011;25151;45.566;9.382;2022-12-13T06:50:26;5.80;;;4.15;;
39448;SDS011;25151;45.566;9.382;2022-12-13T06:56:27;8.60;;;4.77;;
39448;SDS011;25151;45.566;9.382;2022-12-13T06:59:29;5.95;;;4.15;;
39448;SDS011;25151;45.566;9.382;2022-12-13T07:02:29;6.75;;;4.32;;
39448;SDS011;25151;45.566;9.382;2022-12-13T07:05:31;11.55;;;4.60;;
39448;SDS011;25151;45.566;9.382;2022-12-13T07:08:32;7.30;;;4.70;;
39448;SDS011;25151;45.566;9.382;2022-12-13T07:11:36;6.25;;;4.45;;
39448;SDS011;25151;45.566;9.382;2022-12-13T07:14:37;5.88;;;4.32;;
39448;SDS011;25151;45.566;9.382;2022-12-13T07:17:37;6.07;;;4.32;;
39448;SDS011;25151;45.566;9.382;2022-12-13T07:20:38;5.82;;;4.13;;
39448;SDS011;25151;45.566;9.382;2022-12-13T07:23:39;7.03;;;4.45;;
39448;SDS011;25151;45.566;9.382;2022-12-13T07:26:40;7.18;;;4.82;;
39448;SDS011;25151;45.566;9.382;2022-12-13T07:29:41;5.68;;;4.15;;
39448;SDS011;25151;45.566;9.382;2022-12-13T07:32:42;7.60;;;4.68;;
39448;SDS011;25151;45.566;9.382;2022-12-13T07:35:42;8.88;;;4.72;;
39448;SDS011;25151;45.566;9.382;2022-12-13T07:38:43;11.02;;;4.75;;
39448;SDS011;25151;45.566;9.382;2022-12-13T07:41:44;7.13;;;5.05;;
39448;SDS011;25151;45.566;9.382;2022-12-13T07:44:45;7.57;;;4.88;;
39448;SDS011;25151;45.566;9.382;2022-12-13T07:47:46;9.05;;;4.75;;
39448;SDS011;25151;45.566;9.382;2022-12-13T07:50:47;6.22;;;4.45;;
39448;SDS011;25151;45.566;9.382;2022-12-13T07:53:47;6.05;;;4.78;;
39448;SDS011;25151;45.566;9.382;2022-12-13T07:56:48;8.80;;;4.22;;
39448;SDS011;25151;45.566;9.382;2022-12-13T07:59:49;10.27;;;4.75;;
39448;SDS011;25151;45.566;9.382;2022-12-13T08:02:49;8.18;;;4.45;;
39448;SDS011;25151;45.566;9.382;2022-12-13T08:05:56;7.32;;;4.10;;
39448;SDS011;25151;45.566;9.382;2022-12-13T08:08:58;8.23;;;4.50;;
39448;SDS011;25151;45.566;9.382;2022-12-13T08:11:59;6.05;;;4.40;;
39448;SDS011;25151;45.566;9.382;2022-12-13T08:15:00;7.05;;;4.32;;
39448;SDS011;25151;45.566;9.382;2022-12-13T08:18:01;8.07;;;5.05;;
39448;SDS011;25151;45.566;9.382;2022-12-13T08:21:04;6.53;;;4.60;;
39448;SDS011;25151;45.566;9.382;2022-12-13T08:24:05;6.53;;;4.25;;
39448;SDS011;25151;45.566;9.382;2022-12-13T08:27:07;7.40;;;4.80;;
39448;SDS011;25151;45.566;9.382;2022-12-13T08:30:08;8.20;;;4.60;;
39448;SDS011;25151;45.566;9.382;2022-12-13T08:33:09;5.75;;;4.22;;
39448;SDS011;25151;45.566;9.382;2022-12-13T08:36:11;6.68;;;4.03;;
39448;SDS011;25151;45.566;9.382;2022-12-13T08:39:17;6.03;;;3.95;;
39448;SDS011;25151;45.566;9.382;2022-12-13T08:42:22;5.18;;;4.40;;
39448;SDS011;25151;45.566;9.382;2022-12-13T08:45:24;8.32;;;4.55;;
39448;SDS011;25151;45.566;9.382;2022-12-13T08:48:26;8.43;;;4.63;;
39448;SDS011;25151;45.566;9.382;2022-12-13T08:51:27;6.80;;;4.70;;
39448;SDS011;25151;45.566;9.382;2022-12-13T08:54:33;6.97;;;4.13;;
39448;SDS011;25151;45.566;9.382;2022-12-13T08:57:35;7.15;;;4.60;;
39448;SDS011;25151;45.566;9.382;2022-12-13T09:00:36;6.53;;;4.47;;
39448;SDS011;25151;45.566;9.382;2022-12-13T09:03:39;5.68;;;4.13;;
39448;SDS011;25151;45.566;9.382;2022-12-13T09:06:40;5.40;;;4.90;;
39448;SDS011;25151;45.566;9.382;2022-12-13T09:09:42;6.80;;;4.50;;
39448;SDS011;25151;45.566;9.382;2022-12-13T09:12:42;5.72;;;4.32;;
39448;SDS011;25151;45.566;9.382;2022-12-13T09:15:43;5.47;;;4.20;;
39448;SDS011;25151;45.566;9.382;2022-12-13T09:18:44;5.70;;;4.45;;
39448;SDS011;25151;45.566;9.382;2022-12-13T09:21:45;6.38;;;4.90;;
39448;SDS011;25151;45.566;9.382;2022-12-13T09:24:45;7.53;;;4.10;;
39448;SDS011;25151;45.566;9.382;2022-12-13T09:27:46;5.35;;;4.45;;
39448;SDS011;25151;45.566;9.382;2022-12-13T09:30:46;6.57;;;4.88;;
39448;SDS011;25151;45.566;9.382;2022-12-13T09:33:47;6.28;;;4.57;;
39448;SDS011;25151;45.566;9.382;2022-12-13T09:36:48;6.28;;;5.13;;
39448;SDS011;25151;45.566;9.382;2022-12-13T09:39:49;6.28;;;4.15;;
39448;SDS011;25151;45.566;9.382;2022-12-13T09:42:50;5.70;;;3.83;;
39448;SDS011;25151;45.566;9.382;2022-12-13T09:45:54;5.30;;;3.90;;
39448;SDS011;25151;45.566;9.382;2022-12-13T09:48:55;6.10;;;4.45;;
39448;SDS011;25151;45.566;9.382;2022-12-13T09:51:58;6.47;;;3.60;;
39448;SDS011;25151;45.566;9.382;2022-12-13T09:55:00;7.15;;;4.43;;
39448;SDS011;25151;45.566;9.382;2022-12-13T09:58:05;7.75;;;4.60;;
39448;SDS011;25151;45.566;9.382;2022-12-13T10:01:13;6.85;;;4.47;;
39448;SDS011;25151;45.566;9.382;2022-12-13T10:04:14;7.03;;;4.47;;
39448;SDS011;25151;45.566;9.382;2022-12-13T10:07:21;7.85;;;4.53;;
39448;SDS011;25151;45.566;9.382;2022-12-13T10:10:24;5.75;;;4.35;;
39448;SDS011;25151;45.566;9.382;2022-12-13T10:16:43;4.93;;;4.25;;
39448;SDS011;25151;45.566;9.382;2022-12-13T10:19:49;4.93;;;4.00;;
39448;SDS011;25151;45.566;9.382;2022-12-13T10:22:53;6.40;;;4.20;;
39448;SDS011;25151;45.566;9.382;2022-12-13T10:25:54;8.35;;;3.85;;
39448;SDS011;25151;45.566;9.382;2022-12-13T10:29:02;8.88;;;4.10;;
39448;SDS011;25151;45.566;9.382;2022-12-13T10:32:10;6.47;;;3.90;;
39448;SDS011;25151;45.566;9.382;2022-12-13T10:35:18;10.00;;;4.10;;
39448;SDS011;25151;45.566;9.382;2022-12-13T10:38:25;6.00;;;4.18;;
39448;SDS011;25151;45.566;9.382;2022-12-13T10:41:35;6.05;;;4.18;;
39448;SDS011;25151;45.566;9.382;2022-12-13T10:44:37;5.90;;;3.92;;
39448;SDS011;25151;45.566;9.382;2022-12-13T10:47:40;7.85;;;3.90;;
39448;SDS011;25151;45.566;9.382;2022-12-13T10:50:46;7.40;;;4.25;;
39448;SDS011;25151;45.566;9.382;2022-12-13T10:53:59;6.95;;;4.43;;
39448;SDS011;25151;45.566;9.382;2022-12-13T10:57:00;6.20;;;3.80;;
39448;SDS011;25151;45.566;9.382;2022-12-13T11:00:01;6.93;;;4.30;;
39448;SDS011;25151;45.566;9.382;2022-12-13T11:03:05;4.90;;;4.00;;
39448;SDS011;25151;45.566;9.382;2022-12-13T11:06:14;6.43;;;3.97;;
39448;SDS011;25151;45.566;9.382;2022-12-13T11:09:24;5.67;;;4.03;;
39448;SDS011;25151;45.566;9.382;2022-12-13T11:12:32;4.78;;;3.50;;
39448;SDS011;25151;45.566;9.382;2022-12-13T11:15:34;6.00;;;3.97;;
39448;SDS011;25151;45.566;9.382;2022-12-13T11:18:37;5.90;;;4.07;;
39448;SDS011;25151;45.566;9.382;2022-12-13T11:21:44;7.43;;;4.13;;
39448;SDS011;25151;45.566;9.382;2022-12-13T11:24:51;6.40;;;3.92;;
39448;SDS011;25151;45.566;9.382;2022-12-13T11:41:11;4.60;;;3.85;;
39448;SDS011;25151;45.566;9.382;2022-12-13T11:44:18;5.78;;;4.22;;
39448;SDS011;25151;45.566;9.382;2022-12-13T11:47:54;9.15;;;4.07;;
39448;SDS011;25151;45.566;9.382;2022-12-13T11:51:09;6.65;;;4.22;;
39448;SDS011;25151;45.566;9.382;2022-12-13T12:01:11;7.00;;;4.57;;
39448;SDS011;25151;45.566;9.382;2022-12-13T12:07:46;7.57;;;4.90;;
39448;SDS011;25151;45.566;9.382;2022-12-13T12:10:56;5.13;;;3.75;;
39448;SDS011;25151;45.566;9.382;2022-12-13T12:14:13;10.48;;;3.75;;
39448;SDS011;25151;45.566;9.382;2022-12-13T12:17:21;6.97;;;4.18;;
39448;SDS011;25151;45.566;9.382;2022-12-13T12:20:26;6.55;;;3.80;;
39448;SDS011;25151;45.566;9.382;2022-12-13T12:26:58;5.72;;;4.10;;
39448;SDS011;25151;45.566;9.382;2022-12-13T12:34:07;7.75;;;3.72;;
39448;SDS011;25151;45.566;9.382;2022-12-13T12:37:24;6.05;;;4.10;;
39448;SDS011;25151;45.566;9.382;2022-12-13T12:54:07;6.15;;;3.80;;
39448;SDS011;25151;45.566;9.382;2022-12-13T12:57:42;6.85;;;4.00;;
39448;SDS011;25151;45.566;9.382;2022-12-13T13:00:53;4.47;;;3.67;;
39448;SDS011;25151;45.566;9.382;2022-12-13T13:03:59;5.13;;;3.85;;
39448;SDS011;25151;45.566;9.382;2022-12-13T13:07:05;5.32;;;3.92;;
39448;SDS011;25151;45.566;9.382;2022-12-13T13:10:14;7.38;;;3.97;;
39448;SDS011;25151;45.566;9.382;2022-12-13T13:16:48;7.20;;;3.92;;
39448;SDS011;25151;45.566;9.382;2022-12-13T13:23:22;8.70;;;4.35;;
39448;SDS011;25151;45.566;9.382;2022-12-13T13:30:05;4.70;;;3.55;;
39448;SDS011;25151;45.566;9.382;2022-12-13T13:46:12;5.18;;;4.15;;
39448;SDS011;25151;45.566;9.382;2022-12-13T13:49:13;4.20;;;3.78;;
39448;SDS011;25151;45.566;9.382;2022-12-13T14:15:51;8.05;;;4.07;;
39448;SDS011;25151;45.566;9.382;2022-12-13T14:22:47;5.30;;;4.28;;
39448;SDS011;25151;45.566;9.382;2022-12-13T14:26:02;4.68;;;4.05;;
39448;SDS011;25151;45.566;9.382;2022-12-13T14:29:10;8.90;;;4.22;;
39448;SDS011;25151;45.566;9.382;2022-12-13T14:32:29;7.15;;;4.22;;
39448;SDS011;25151;45.566;9.382;2022-12-13T14:35:36;6.07;;;4.10;;
39448;SDS011;25151;45.566;9.382;2022-12-13T14:38:36;4.35;;;3.25;;
39448;SDS011;25151;45.566;9.382;2022-12-13T14:41:47;6.85;;;4.20;;
39448;SDS011;25151;45.566;9.382;2022-12-13T14:44:49;7.38;;;4.40;;
39448;SDS011;25151;45.566;9.382;2022-12-13T14:47:57;4.38;;;3.90;;
39448;SDS011;25151;45.566;9.382;2022-12-13T14:50:59;5.97;;;4.70;;
39448;SDS011;25151;45.566;9.382;2022-12-13T14:54:01;6.53;;;4.60;;
39448;SDS011;25151;45.566;9.382;2022-12-13T14:57:03;7.25;;;4.50;;
39448;SDS011;25151;45.566;9.382;2022-12-13T15:00:25;6.68;;;4.53;;
39448;SDS011;25151;45.566;9.382;2022-12-13T15:03:29;6.65;;;4.53;;
39448;SDS011;25151;45.566;9.382;2022-12-13T15:06:29;7.28;;;4.60;;
39448;SDS011;25151;45.566;9.382;2022-12-13T15:09:30;7.80;;;4.80;;
39448;SDS011;25151;45.566;9.382;2022-12-13T15:12:34;9.10;;;5.05;;
39448;SDS011;25151;45.566;9.382;2022-12-13T15:15:41;6.82;;;4.95;;
39448;SDS011;25151;45.566;9.382;2022-12-13T15:18:42;7.07;;;4.85;;
39448;SDS011;25151;45.566;9.382;2022-12-13T15:22:05;8.30;;;5.05;;
39448;SDS011;25151;45.566;9.382;2022-12-13T15:25:13;6.88;;;4.70;;
39448;SDS011;25151;45.566;9.382;2022-12-13T15:28:14;8.43;;;5.05;;
39448;SDS011;25151;45.566;9.382;2022-12-13T15:31:17;5.80;;;4.40;;
39448;SDS011;25151;45.566;9.382;2022-12-13T15:34:22;7.80;;;4.30;;
39448;SDS011;25151;45.566;9.382;2022-12-13T15:37:30;8.18;;;4.80;;
39448;SDS011;25151;45.566;9.382;2022-12-13T15:40:32;8.32;;;5.30;;
39448;SDS011;25151;45.566;9.382;2022-12-13T15:43:41;9.88;;;5.25;;
39448;SDS011;25151;45.566;9.382;2022-12-13T15:46:45;11.95;;;5.57;;
39448;SDS011;25151;45.566;9.382;2022-12-13T15:49:49;8.45;;;4.88;;
39448;SDS011;25151;45.566;9.382;2022-12-13T15:52:57;10.25;;;5.45;;
39448;SDS011;25151;45.566;9.382;2022-12-13T15:55:59;8.98;;;5.05;;
39448;SDS011;25151;45.566;9.382;2022-12-13T15:59:01;7.38;;;5.00;;
39448;SDS011;25151;45.566;9.382;2022-12-13T16:02:08;9.23;;;5.40;;
39448;SDS011;25151;45.566;9.382;2022-12-13T16:05:24;8.00;;;5.43;;
39448;SDS011;25151;45.566;9.382;2022-12-13T16:08:32;9.73;;;4.97;;
39448;SDS011;25151;45.566;9.382;2022-12-13T16:11:38;8.65;;;5.20;;
39448;SDS011;25151;45.566;9.382;2022-12-13T16:15:16;9.48;;;5.38;;
39448;SDS011;25151;45.566;9.382;2022-12-13T16:18:23;6.93;;;5.20;;
39448;SDS011;25151;45.566;9.382;2022-12-13T16:21:28;7.68;;;5.10;;
39448;SDS011;25151;45.566;9.382;2022-12-13T16:24:29;7.88;;;5.40;;
39448;SDS011;25151;45.566;9.382;2022-12-13T16:27:29;7.28;;;5.30;;
39448;SDS011;25151;45.566;9.382;2022-12-13T16:33:49;6.85;;;4.95;;
39448;SDS011;25151;45.566;9.382;2022-12-13T16:36:50;6.35;;;5.35;;
39448;SDS011;25151;45.566;9.382;2022-12-13T16:39:51;6.50;;;5.18;;
39448;SDS011;25151;45.566;9.382;2022-12-13T16:42:57;7.68;;;5.40;;
39448;SDS011;25151;45.566;9.382;2022-12-13T16:46:03;11.82;;;5.82;;
39448;SDS011;25151;45.566;9.382;2022-12-13T16:49:05;9.45;;;5.55;;
39448;SDS011;25151;45.566;9.382;2022-12-13T16:52:21;7.35;;;4.80;;
39448;SDS011;25151;45.566;9.382;2022-12-13T16:55:22;7.13;;;5.38;;
39448;SDS011;25151;45.566;9.382;2022-12-13T16:58:22;7.38;;;4.90;;
39448;SDS011;25151;45.566;9.382;2022-12-13T17:01:25;9.20;;;4.95;;
39448;SDS011;25151;45.566;9.382;2022-12-13T17:04:26;5.82;;;5.03;;
39448;SDS011;25151;45.566;9.382;2022-12-13T17:07:27;7.22;;;5.30;;
39448;SDS011;25151;45.566;9.382;2022-12-13T17:10:28;7.43;;;5.00;;
39448;SDS011;25151;45.566;9.382;2022-12-13T17:13:30;6.35;;;5.07;;
39448;SDS011;25151;45.566;9.382;2022-12-13T17:16:30;7.53;;;4.88;;
39448;SDS011;25151;45.566;9.382;2022-12-13T17:19:31;8.13;;;5.25;;
39448;SDS011;25151;45.566;9.382;2022-12-13T17:22:32;6.78;;;4.90;;
39448;SDS011;25151;45.566;9.382;2022-12-13T17:25:35;7.65;;;5.18;;
39448;SDS011;25151;45.566;9.382;2022-12-13T17:28:40;7.78;;;5.15;;
39448;SDS011;25151;45.566;9.382;2022-12-13T17:31:41;7.80;;;5.68;;
39448;SDS011;25151;45.566;9.382;2022-12-13T17:34:41;8.23;;;5.10;;
39448;SDS011;25151;45.566;9.382;2022-12-13T17:37:42;6.82;;;4.63;;
39448;SDS011;25151;45.566;9.382;2022-12-13T17:40:43;8.25;;;5.10;;
39448;SDS011;25151;45.566;9.382;2022-12-13T17:43:43;5.95;;;4.85;;
39448;SDS011;25151;45.566;9.382;2022-12-13T17:46:44;6.32;;;4.45;;
39448;SDS011;25151;45.566;9.382;2022-12-13T17:49:44;8.55;;;5.70;;
39448;SDS011;25151;45.566;9.382;2022-12-13T17:52:45;5.93;;;4.30;;
39448;SDS011;25151;45.566;9.382;2022-12-13T17:55:52;6.90;;;5.25;;
39448;SDS011;25151;45.566;9.382;2022-12-13T17:59:00;8.98;;;5.47;;
39448;SDS011;25151;45.566;9.382;2022-12-13T18:02:02;9.57;;;4.78;;
39448;SDS011;25151;45.566;9.382;2022-12-13T18:05:02;8.15;;;5.57;;
39448;SDS011;25151;45.566;9.382;2022-12-13T18:08:04;6.47;;;4.95;;
39448;SDS011;25151;45.566;9.382;2022-12-13T18:11:06;7.00;;;5.25;;
39448;SDS011;25151;45.566;9.382;2022-12-13T18:14:07;6.30;;;4.50;;
39448;SDS011;25151;45.566;9.382;2022-12-13T18:17:08;6.03;;;5.25;;
39448;SDS011;25151;45.566;9.382;2022-12-13T18:20:09;8.05;;;4.80;;
39448;SDS011;25151;45.566;9.382;2022-12-13T18:23:10;6.80;;;4.97;;
39448;SDS011;25151;45.566;9.382;2022-12-13T18:26:13;7.90;;;5.03;;
39448;SDS011;25151;45.566;9.382;2022-12-13T18:29:15;7.10;;;4.97;;
39448;SDS011;25151;45.566;9.382;2022-12-13T18:32:16;7.80;;;5.05;;
39448;SDS011;25151;45.566;9.382;2022-12-13T18:35:19;6.50;;;4.88;;
39448;SDS011;25151;45.566;9.382;2022-12-13T18:38:23;8.82;;;5.28;;
39448;SDS011;25151;45.566;9.382;2022-12-13T18:41:26;7.10;;;4.85;;
39448;SDS011;25151;45.566;9.382;2022-12-13T18:44:29;6.03;;;4.50;;
39448;SDS011;25151;45.566;9.382;2022-12-13T18:47:30;6.78;;;5.15;;
39448;SDS011;25151;45.566;9.382;2022-12-13T18:50:31;8.38;;;5.00;;
39448;SDS011;25151;45.566;9.382;2022-12-13T18:53:33;7.60;;;5.55;;
39448;SDS011;25151;45.566;9.382;2022-12-13T18:56:34;8.68;;;5.32;;
39448;SDS011;25151;45.566;9.382;2022-12-13T18:59:44;8.77;;;5.45;;
39448;SDS011;25151;45.566;9.382;2022-12-13T19:02:44;8.27;;;5.30;;
39448;SDS011;25151;45.566;9.382;2022-12-13T19:05:45;6.60;;;4.93;;
39448;SDS011;25151;45.566;9.382;2022-12-13T19:08:49;6.88;;;5.03;;
39448;SDS011;25151;45.566;9.382;2022-12-13T19:11:51;6.18;;;4.63;;
39448;SDS011;25151;45.566;9.382;2022-12-13T19:14:52;8.32;;;5.05;;
39448;SDS011;25151;45.566;9.382;2022-12-13T19:17:52;7.75;;;5.30;;
39448;SDS011;25151;45.566;9.382;2022-12-13T19:20:55;10.65;;;4.75;;
39448;SDS011;25151;45.566;9.382;2022-12-13T19:23:56;6.55;;;4.72;;
39448;SDS011;25151;45.566;9.382;2022-12-13T19:27:00;8.90;;;4.60;;
39448;SDS011;25151;45.566;9.382;2022-12-13T19:30:02;10.80;;;5.00;;
39448;SDS011;25151;45.566;9.382;2022-12-13T19:33:05;7.47;;;4.28;;
39448;SDS011;25151;45.566;9.382;2022-12-13T19:36:06;5.90;;;4.35;;
39448;SDS011;25151;45.566;9.382;2022-12-13T19:39:10;9.48;;;5.22;;
39448;SDS011;25151;45.566;9.382;2022-12-13T19:42:11;5.95;;;4.32;;
39448;SDS011;25151;45.566;9.382;2022-12-13T19:45:12;6.82;;;5.07;;
39448;SDS011;25151;45.566;9.382;2022-12-13T19:48:12;7.68;;;4.97;;
39448;SDS011;25151;45.566;9.382;2022-12-13T19:51:14;8.25;;;4.32;;
39448;SDS011;25151;45.566;9.382;2022-12-13T19:54:18;5.57;;;4.07;;
39448;SDS011;25151;45.566;9.382;2022-12-13T19:57:19;10.18;;;4.13;;
39448;SDS011;25151;45.566;9.382;2022-12-13T20:00:20;9.45;;;4.10;;
39448;SDS011;25151;45.566;9.382;2022-12-13T20:03:20;6.47;;;4.15;;
39448;SDS011;25151;45.566;9.382;2022-12-13T20:06:22;8.35;;;4.35;;
39448;SDS011;25151;45.566;9.382;2022-12-13T20:09:23;5.88;;;3.90;;
39448;SDS011;25151;45.566;9.382;2022-12-13T20:12:24;9.40;;;4.38;;
39448;SDS011;25151;45.566;9.382;2022-12-13T20:15:24;6.53;;;3.70;;
39448;SDS011;25151;45.566;9.382;2022-12-13T20:18:25;5.38;;;4.35;;
39448;SDS011;25151;45.566;9.382;2022-12-13T20:21:26;6.38;;;3.85;;
39448;SDS011;25151;45.566;9.382;2022-12-13T20:24:28;6.60;;;4.35;;
39448;SDS011;25151;45.566;9.382;2022-12-13T20:27:28;4.70;;;3.63;;
39448;SDS011;25151;45.566;9.382;2022-12-13T20:30:29;5.40;;;4.05;;
39448;SDS011;25151;45.566;9.382;2022-12-13T20:33:31;6.85;;;3.85;;
39448;SDS011;25151;45.566;9.382;2022-12-13T20:36:32;6.43;;;3.65;;
39448;SDS011;25151;45.566;9.382;2022-12-13T20:39:33;5.32;;;3.88;;
39448;SDS011;25151;45.566;9.382;2022-12-13T20:42:38;6.63;;;3.70;;
39448;SDS011;25151;45.566;9.382;2022-12-13T20:45:45;6.88;;;4.03;;
39448;SDS011;25151;45.566;9.382;2022-12-13T20:48:47;8.60;;;4.18;;
39448;SDS011;25151;45.566;9.382;2022-12-13T20:51:49;9.88;;;4.55;;
39448;SDS011;25151;45.566;9.382;2022-12-13T20:54:50;10.05;;;4.32;;
39448;SDS011;25151;45.566;9.382;2022-12-13T20:57:51;6.82;;;4.28;;
39448;SDS011;25151;45.566;9.382;2022-12-13T21:00:52;6.40;;;4.43;;
39448;SDS011;25151;45.566;9.382;2022-12-13T21:03:54;4.72;;;4.13;;
39448;SDS011;25151;45.566;9.382;2022-12-13T21:06:57;8.13;;;4.30;;
39448;SDS011;25151;45.566;9.382;2022-12-13T21:09:58;5.30;;;4.38;;